createdAt,value
2022-12-13T00:00:27.257Z,58.37
2022-12-13T00:01:27.278Z,58.37
2022-12-13T00:02:27.263Z,58.27
2022-12-13T00:03:27.221Z,58.27
2022-12-13T00:04:27.263Z,58.27
2022-12-13T00:05:27.195Z,58.27
2022-12-13T00:06:27.185Z,58.27
2022-12-13T00:07:27.172Z,58.27
2022-12-13T00:08:27.189Z,58.37
2022-12-13T00:09:27.145Z,58.27
2022-12-13T00:10:27.130Z,58.27
2022-12-13T00:11:27.117Z,58.27
2022-12-13T00:12:27.104Z,58.37
2022-12-13T00:13:27.094Z,58.27
2022-12-13T00:14:27.078Z,58.37
2022-12-13T00:15:27.068Z,58.37
2022-12-13T00:16:27.104Z,58.37
2022-12-13T00:17:27.063Z,58.37
2022-12-13T00:18:27.026Z,58.37
2022-12-13T00:19:27.015Z,58.27
2022-12-13T00:20:27.000Z,58.27
2022-12-13T00:21:26.989Z,58.16
2022-12-13T00:22:26.975Z,58.16
2022-12-13T00:23:26.964Z,58.27
2022-12-13T00:24:26.948Z,58.27
2022-12-13T00:25:26.938Z,58.37
2022-12-13T00:26:26.924Z,58.37
2022-12-13T00:27:26.912Z,58.37
2022-12-13T00:28:26.898Z,58.37
2022-12-13T00:29:26.887Z,58.37
2022-12-13T00:30:26.918Z,58.27
2022-12-13T00:31:56.678Z,58.06
2022-12-13T00:32:27.889Z,58.06
2022-12-13T00:33:26.857Z,58.16
2022-12-13T00:34:26.823Z,58.16
2022-12-13T00:35:26.811Z,58.16
2022-12-13T00:36:26.795Z,58.27
2022-12-13T00:37:26.783Z,58.27
2022-12-13T00:38:26.769Z,58.27
2022-12-13T00:39:26.758Z,58.27
2022-12-13T00:40:26.743Z,58.16
2022-12-13T00:41:26.731Z,58.16
2022-12-13T00:42:26.719Z,58.27
2022-12-13T00:43:26.704Z,58.27
2022-12-13T00:44:26.692Z,58.27
2022-12-13T00:45:26.678Z,58.27
2022-12-13T00:46:26.702Z,58.16
2022-12-13T00:47:26.655Z,58.27
2022-12-13T00:48:26.637Z,58.16
2022-12-13T00:49:26.651Z,58.16
2022-12-13T00:50:26.612Z,58.27
2022-12-13T00:51:26.604Z,58.27
2022-12-13T00:52:26.585Z,58.16
2022-12-13T00:53:26.574Z,58.16
2022-12-13T00:54:26.561Z,58.06
2022-12-13T00:55:26.549Z,58.16
2022-12-13T00:56:26.533Z,58.06
2022-12-13T00:57:26.523Z,58.06
2022-12-13T00:58:27.509Z,58.16
2022-12-13T00:59:26.496Z,58.06
2022-12-13T01:00:26.482Z,58.16
2022-12-13T01:01:26.510Z,58.16
2022-12-13T01:02:26.454Z,58.16
2022-12-13T01:03:26.533Z,58.16
2022-12-13T01:04:26.425Z,58.27
2022-12-13T01:05:54.561Z,58.27
2022-12-13T01:06:27.440Z,58.27
2022-12-13T01:07:26.388Z,58.27
2022-12-13T01:08:26.420Z,58.37
2022-12-13T01:09:26.361Z,58.27
2022-12-13T01:10:26.348Z,58.16
2022-12-13T01:11:26.339Z,58.27
2022-12-13T01:12:26.320Z,58.16
2022-12-13T01:13:26.310Z,58.27
2022-12-13T01:14:26.295Z,58.16
2022-12-13T01:15:26.282Z,58.16
2022-12-13T01:16:26.362Z,58.16
2022-12-13T01:17:26.256Z,58.16
2022-12-13T01:18:26.243Z,58.19
2022-12-13T01:19:26.234Z,58.30
2022-12-13T01:20:26.216Z,58.27
2022-12-13T01:21:26.232Z,58.16
2022-12-13T01:22:26.190Z,58.16
2022-12-13T01:23:26.177Z,58.06
2022-12-13T01:24:26.165Z,58.06
2022-12-13T01:25:26.153Z,58.06
2022-12-13T01:26:26.138Z,58.16
2022-12-13T01:27:26.127Z,58.16
2022-12-13T01:28:26.113Z,58.16
2022-12-13T01:29:26.106Z,58.16
2022-12-13T01:30:26.089Z,58.16
2022-12-13T01:31:26.075Z,58.19
2022-12-13T01:32:26.060Z,58.19
2022-12-13T01:33:26.059Z,58.16
2022-12-13T01:34:26.575Z,58.16
2022-12-13T01:35:26.024Z,58.16
2022-12-13T01:36:27.009Z,58.16
2022-12-13T01:37:26.380Z,58.19
2022-12-13T01:38:26.315Z,58.19
2022-12-13T01:39:26.468Z,58.16
2022-12-13T01:40:26.514Z,58.19
2022-12-13T01:41:27.349Z,58.06
2022-12-13T01:42:25.932Z,58.19
2022-12-13T01:43:25.922Z,58.19
2022-12-13T01:44:25.907Z,58.19
2022-12-13T01:45:25.898Z,58.19
2022-12-13T01:46:25.922Z,58.19
2022-12-13T01:47:25.872Z,58.19
2022-12-13T01:48:25.854Z,58.16
2022-12-13T01:49:25.844Z,58.06
2022-12-13T01:50:25.829Z,58.09
2022-12-13T01:51:25.817Z,58.06
2022-12-13T01:52:25.804Z,58.19
2022-12-13T01:53:25.821Z,58.09
2022-12-13T01:54:25.777Z,58.09
2022-12-13T01:55:26.804Z,58.09
2022-12-13T01:56:25.753Z,58.09
2022-12-13T01:57:25.741Z,58.06
2022-12-13T01:58:25.725Z,58.09
2022-12-13T01:59:25.717Z,58.19
2022-12-13T02:00:25.701Z,58.09
2022-12-13T02:01:25.755Z,58.09
2022-12-13T02:02:25.675Z,58.06
2022-12-13T02:03:25.663Z,57.95
2022-12-13T02:04:25.650Z,58.06
2022-12-13T02:05:25.721Z,58.09
2022-12-13T02:06:25.623Z,58.09
2022-12-13T02:07:25.610Z,58.09
2022-12-13T02:08:25.661Z,58.09
2022-12-13T02:09:25.620Z,58.09
2022-12-13T02:10:25.571Z,58.09
2022-12-13T02:11:25.561Z,58.19
2022-12-13T02:12:25.545Z,58.09
2022-12-13T02:13:25.534Z,57.98
2022-12-13T02:14:25.521Z,58.09
2022-12-13T02:15:25.509Z,57.98
2022-12-13T02:16:25.581Z,57.95
2022-12-13T02:17:25.485Z,57.86
2022-12-13T02:18:25.470Z,57.86
2022-12-13T02:19:25.457Z,57.86
2022-12-13T02:20:25.444Z,57.86
2022-12-13T02:21:25.437Z,57.88
2022-12-13T02:22:25.418Z,57.98
2022-12-13T02:23:25.404Z,58.09
2022-12-13T02:24:25.391Z,58.09
2022-12-13T02:25:28.389Z,58.09
2022-12-13T02:26:25.366Z,58.09
2022-12-13T02:27:30.735Z,58.09
2022-12-13T02:28:30.304Z,57.88
2022-12-13T02:29:30.857Z,57.98
2022-12-13T02:30:25.315Z,57.98
2022-12-13T02:31:25.396Z,57.98
2022-12-13T02:32:25.288Z,58.09
2022-12-13T02:33:25.279Z,58.09
2022-12-13T02:34:25.263Z,57.98
2022-12-13T02:35:25.249Z,57.98
2022-12-13T02:36:25.238Z,58.09
2022-12-13T02:37:25.224Z,57.98
2022-12-13T02:38:25.212Z,57.98
2022-12-13T02:39:30.151Z,57.98
2022-12-13T02:40:25.186Z,57.86
2022-12-13T02:41:25.201Z,57.86
2022-12-13T02:42:25.160Z,57.75
2022-12-13T02:43:25.148Z,57.86
2022-12-13T02:44:25.135Z,57.75
2022-12-13T02:45:25.323Z,57.65
2022-12-13T02:46:25.192Z,57.75
2022-12-13T02:47:25.101Z,57.86
2022-12-13T02:48:25.084Z,57.88
2022-12-13T02:49:25.069Z,57.88
2022-12-13T02:50:25.058Z,57.88
2022-12-13T02:51:25.043Z,57.98
2022-12-13T02:52:25.035Z,57.98
2022-12-13T02:53:25.017Z,57.98
2022-12-13T02:54:25.006Z,57.98
2022-12-13T02:55:28.065Z,57.98
2022-12-13T02:56:24.981Z,57.88
2022-12-13T02:57:24.989Z,57.88
2022-12-13T02:58:24.955Z,57.98
2022-12-13T02:59:24.940Z,57.98
2022-12-13T03:00:24.932Z,58.09
2022-12-13T03:01:29.146Z,57.98
2022-12-13T03:02:31.026Z,57.98
2022-12-13T03:03:26.103Z,57.98
2022-12-13T03:04:26.570Z,57.98
2022-12-13T03:05:24.862Z,57.88
2022-12-13T03:06:24.850Z,57.98
2022-12-13T03:07:25.876Z,57.88
2022-12-13T03:08:24.931Z,57.98
2022-12-13T03:09:24.816Z,58.09
2022-12-13T03:10:24.802Z,58.09
2022-12-13T03:11:24.785Z,58.09
2022-12-13T03:12:24.774Z,57.98
2022-12-13T03:13:24.783Z,57.98
2022-12-13T03:14:24.750Z,57.88
2022-12-13T03:15:24.733Z,57.98
2022-12-13T03:16:24.769Z,57.98
2022-12-13T03:17:24.708Z,57.88
2022-12-13T03:18:24.697Z,57.88
2022-12-13T03:19:24.682Z,57.88
2022-12-13T03:20:24.674Z,57.78
2022-12-13T03:21:24.660Z,57.67
2022-12-13T03:22:24.646Z,57.65
2022-12-13T03:23:24.630Z,57.78
2022-12-13T03:24:24.619Z,57.78
2022-12-13T03:25:30.986Z,57.88
2022-12-13T03:26:24.593Z,57.98
2022-12-13T03:27:24.580Z,57.98
2022-12-13T03:28:24.569Z,57.98
2022-12-13T03:29:25.091Z,57.98
2022-12-13T03:30:24.541Z,57.98
2022-12-13T03:31:24.611Z,57.98
2022-12-13T03:32:24.520Z,57.98
2022-12-13T03:33:24.504Z,57.98
2022-12-13T03:34:24.491Z,57.98
2022-12-13T03:35:24.970Z,57.98
2022-12-13T03:36:25.507Z,57.88
2022-12-13T03:37:24.450Z,57.98
2022-12-13T03:38:24.441Z,57.98
2022-12-13T03:39:24.425Z,57.88
2022-12-13T03:40:24.417Z,57.78
2022-12-13T03:41:24.397Z,57.78
2022-12-13T03:42:24.387Z,57.88
2022-12-13T03:43:24.371Z,57.98
2022-12-13T03:44:24.360Z,57.88
2022-12-13T03:45:25.410Z,57.78
2022-12-13T03:46:24.349Z,57.88
2022-12-13T03:47:24.319Z,57.88
2022-12-13T03:48:24.418Z,57.78
2022-12-13T03:49:24.292Z,57.78
2022-12-13T03:50:28.345Z,57.78
2022-12-13T03:51:24.266Z,57.78
2022-12-13T03:52:24.257Z,57.78
2022-12-13T03:53:33.832Z,57.78
2022-12-13T03:54:25.273Z,57.78
2022-12-13T03:55:24.214Z,57.78
2022-12-13T03:56:24.205Z,57.78
2022-12-13T03:57:24.188Z,57.78
2022-12-13T03:58:24.178Z,57.78
2022-12-13T03:59:24.163Z,57.78
2022-12-13T04:00:24.152Z,57.78
2022-12-13T04:01:24.195Z,57.67
2022-12-13T04:02:31.029Z,57.67
2022-12-13T04:03:25.200Z,57.78
2022-12-13T04:04:24.100Z,57.78
2022-12-13T04:05:24.084Z,57.78
2022-12-13T04:06:28.570Z,57.67
2022-12-13T04:07:25.101Z,57.67
2022-12-13T04:08:25.176Z,57.78
2022-12-13T04:09:24.034Z,57.78
2022-12-13T04:10:26.276Z,57.78
2022-12-13T04:11:24.010Z,57.78
2022-12-13T04:12:23.995Z,57.67
2022-12-13T04:13:23.982Z,57.67
2022-12-13T04:14:23.971Z,57.67
2022-12-13T04:15:23.956Z,57.67
2022-12-13T04:16:24.063Z,57.67
2022-12-13T04:17:23.952Z,57.67
2022-12-13T04:18:23.917Z,57.78
2022-12-13T04:19:24.315Z,57.78
2022-12-13T04:20:23.892Z,57.78
2022-12-13T04:21:23.879Z,57.67
2022-12-13T04:22:25.080Z,57.67
2022-12-13T04:23:23.850Z,57.67
2022-12-13T04:24:31.796Z,57.78
2022-12-13T04:25:23.825Z,57.67
2022-12-13T04:26:23.815Z,57.67
2022-12-13T04:27:23.799Z,57.57
2022-12-13T04:28:23.787Z,57.57
2022-12-13T04:29:23.774Z,57.57
2022-12-13T04:30:23.762Z,57.57
2022-12-13T04:31:23.845Z,57.57
2022-12-13T04:32:26.416Z,57.57
2022-12-13T04:33:23.744Z,57.67
2022-12-13T04:34:26.366Z,57.67
2022-12-13T04:35:23.695Z,57.67
2022-12-13T04:36:32.181Z,57.67
2022-12-13T04:37:24.716Z,57.67
2022-12-13T04:38:23.658Z,57.67
2022-12-13T04:39:23.643Z,57.67
2022-12-13T04:40:23.633Z,57.78
2022-12-13T04:41:23.617Z,57.78
2022-12-13T04:42:23.605Z,57.67
2022-12-13T04:43:23.592Z,57.67
2022-12-13T04:44:28.340Z,57.67
2022-12-13T04:45:23.573Z,57.67
2022-12-13T04:46:23.553Z,57.67
2022-12-13T04:47:23.542Z,57.67
2022-12-13T04:48:30.718Z,57.78
2022-12-13T04:49:24.577Z,57.78
2022-12-13T04:50:23.503Z,57.78
2022-12-13T04:51:23.488Z,57.88
2022-12-13T04:52:23.476Z,57.78
2022-12-13T04:53:23.460Z,57.57
2022-12-13T04:54:24.799Z,57.67
2022-12-13T04:55:23.439Z,57.67
2022-12-13T04:56:23.425Z,57.67
2022-12-13T04:57:23.409Z,57.67
2022-12-13T04:58:23.418Z,57.67
2022-12-13T04:59:23.386Z,57.78
2022-12-13T05:00:23.541Z,57.78
2022-12-13T05:01:23.422Z,57.67
2022-12-13T05:02:24.392Z,57.67
2022-12-13T05:03:23.339Z,57.67
2022-12-13T05:04:26.357Z,57.67
2022-12-13T05:05:24.367Z,57.47
2022-12-13T05:06:27.151Z,57.57
2022-12-13T05:07:23.278Z,57.67
2022-12-13T05:08:23.360Z,57.67
2022-12-13T05:09:23.254Z,57.67
2022-12-13T05:10:33.850Z,57.78
2022-12-13T05:11:24.270Z,57.78
2022-12-13T05:12:23.660Z,57.67
2022-12-13T05:13:23.202Z,57.57
2022-12-13T05:14:23.827Z,57.57
2022-12-13T05:15:23.175Z,57.67
2022-12-13T05:16:24.815Z,57.67
2022-12-13T05:17:23.194Z,57.67
2022-12-13T05:18:23.137Z,57.67
2022-12-13T05:19:31.105Z,57.67
2022-12-13T05:20:24.150Z,57.67
2022-12-13T05:21:23.131Z,57.67
2022-12-13T05:22:23.093Z,57.57
2022-12-13T05:23:23.162Z,57.57
2022-12-13T05:24:23.060Z,57.57
2022-12-13T05:25:23.045Z,57.57
2022-12-13T05:26:23.032Z,57.57
2022-12-13T05:27:23.924Z,57.57
2022-12-13T05:28:28.270Z,57.57
2022-12-13T05:29:22.995Z,57.57
2022-12-13T05:30:22.982Z,57.67
2022-12-13T05:31:24.147Z,57.67
2022-12-13T05:32:23.000Z,57.67
2022-12-13T05:33:22.948Z,57.57
2022-12-13T05:34:22.934Z,57.57
2022-12-13T05:35:23.998Z,57.57
2022-12-13T05:36:22.904Z,57.57
2022-12-13T05:37:22.920Z,57.57
2022-12-13T05:38:22.877Z,57.57
2022-12-13T05:39:27.999Z,57.57
2022-12-13T05:40:23.945Z,57.67
2022-12-13T05:41:22.837Z,57.67
2022-12-13T05:42:22.827Z,57.67
2022-12-13T05:43:22.812Z,57.67
2022-12-13T05:44:22.806Z,57.67
2022-12-13T05:45:22.787Z,57.67
2022-12-13T05:46:22.817Z,57.67
2022-12-13T05:47:22.761Z,57.67
2022-12-13T05:48:24.237Z,57.67
2022-12-13T05:49:22.737Z,57.57
2022-12-13T05:50:22.721Z,57.67
2022-12-13T05:51:22.709Z,57.67
2022-12-13T05:52:30.533Z,57.67
2022-12-13T05:53:30.816Z,57.67
2022-12-13T05:54:23.710Z,57.67
2022-12-13T05:55:22.659Z,57.57
2022-12-13T05:56:22.980Z,57.57
2022-12-13T05:57:22.631Z,57.57
2022-12-13T05:58:23.125Z,57.57
2022-12-13T05:59:22.604Z,57.67
2022-12-13T06:00:29.714Z,57.78
2022-12-13T06:01:23.618Z,57.78
2022-12-13T06:02:22.731Z,57.67
2022-12-13T06:03:22.682Z,57.80
2022-12-13T06:04:23.475Z,57.78
2022-12-13T06:05:22.526Z,57.67
2022-12-13T06:06:22.516Z,57.70
2022-12-13T06:07:22.503Z,57.78
2022-12-13T06:08:24.674Z,57.78
2022-12-13T06:09:22.558Z,57.78
2022-12-13T06:10:22.465Z,57.78
2022-12-13T06:11:31.091Z,57.78
2022-12-13T06:12:31.800Z,57.67
2022-12-13T06:13:32.340Z,57.67
2022-12-13T06:14:23.320Z,57.67
2022-12-13T06:15:23.014Z,57.80
2022-12-13T06:16:24.366Z,57.67
2022-12-13T06:17:22.372Z,57.67
2022-12-13T06:18:22.359Z,57.67
2022-12-13T06:19:22.354Z,57.67
2022-12-13T06:20:23.463Z,57.67
2022-12-13T06:21:22.319Z,57.67
2022-12-13T06:22:22.308Z,57.67
2022-12-13T06:23:22.292Z,57.67
2022-12-13T06:24:22.282Z,57.67
2022-12-13T06:25:30.916Z,57.78
2022-12-13T06:26:23.349Z,57.78
2022-12-13T06:27:22.243Z,57.78
2022-12-13T06:28:22.230Z,57.78
2022-12-13T06:29:24.226Z,57.80
2022-12-13T06:30:22.204Z,57.78
2022-12-13T06:31:22.259Z,57.78
2022-12-13T06:32:22.179Z,57.78
2022-12-13T06:33:23.312Z,57.78
2022-12-13T06:34:22.153Z,57.78
2022-12-13T06:35:28.749Z,57.78
2022-12-13T06:36:23.165Z,57.78
2022-12-13T06:37:22.112Z,57.78
2022-12-13T06:38:31.433Z,57.78
2022-12-13T06:39:23.129Z,57.78
2022-12-13T06:40:23.405Z,57.67
2022-12-13T06:41:22.089Z,57.80
2022-12-13T06:42:22.482Z,57.78
2022-12-13T06:43:22.035Z,57.80
2022-12-13T06:44:22.024Z,57.80
2022-12-13T06:45:22.010Z,57.80
2022-12-13T06:46:22.039Z,57.78
2022-12-13T06:47:31.839Z,57.67
2022-12-13T06:48:23.010Z,57.78
2022-12-13T06:49:22.260Z,57.80
2022-12-13T06:50:21.945Z,57.80
2022-12-13T06:51:22.465Z,57.78
2022-12-13T06:52:21.920Z,57.78
2022-12-13T06:53:21.909Z,57.80
2022-12-13T06:54:22.148Z,57.67
2022-12-13T06:55:23.686Z,57.67
2022-12-13T06:56:21.866Z,57.80
2022-12-13T06:57:21.878Z,57.80
2022-12-13T06:58:21.841Z,57.80
2022-12-13T06:59:21.828Z,57.80
2022-12-13T07:00:22.823Z,57.80
2022-12-13T07:01:23.983Z,57.80
2022-12-13T07:02:25.774Z,57.78
2022-12-13T07:03:21.853Z,57.78
2022-12-13T07:04:30.560Z,57.80
2022-12-13T07:05:22.792Z,57.70
2022-12-13T07:06:21.737Z,57.78
2022-12-13T07:07:21.726Z,57.80
2022-12-13T07:08:22.130Z,57.80
2022-12-13T07:09:21.703Z,57.78
2022-12-13T07:10:23.041Z,57.78
2022-12-13T07:11:21.678Z,57.80
2022-12-13T07:12:21.668Z,57.80
2022-12-13T07:13:21.677Z,57.91
2022-12-13T07:14:21.634Z,57.80
2022-12-13T07:15:21.624Z,57.78
2022-12-13T07:16:21.692Z,57.80
2022-12-13T07:17:33.477Z,57.80
2022-12-13T07:18:22.624Z,57.67
2022-12-13T07:19:23.504Z,57.70
2022-12-13T07:20:21.556Z,57.67
2022-12-13T07:21:22.588Z,57.67
2022-12-13T07:22:21.532Z,57.78
2022-12-13T07:23:24.397Z,57.78
2022-12-13T07:24:21.507Z,57.78
2022-12-13T07:25:26.755Z,57.80
2022-12-13T07:26:21.480Z,57.80
2022-12-13T07:27:21.472Z,57.70
2022-12-13T07:28:21.456Z,57.67
2022-12-13T07:29:22.216Z,57.70
2022-12-13T07:30:21.429Z,57.70
2022-12-13T07:31:21.478Z,57.80
2022-12-13T07:32:21.403Z,57.70
2022-12-13T07:33:22.152Z,57.80
2022-12-13T07:34:21.382Z,57.80
2022-12-13T07:35:21.369Z,57.67
2022-12-13T07:36:21.356Z,57.70
2022-12-13T07:37:30.113Z,57.70
2022-12-13T07:38:21.324Z,57.67
2022-12-13T07:39:21.317Z,57.70
2022-12-13T07:40:21.299Z,57.60
2022-12-13T07:41:23.477Z,57.57
2022-12-13T07:42:21.274Z,57.70
2022-12-13T07:43:22.037Z,57.70
2022-12-13T07:44:21.249Z,57.70
2022-12-13T07:45:21.262Z,57.70
2022-12-13T07:46:25.771Z,57.60
2022-12-13T07:47:22.249Z,57.60
2022-12-13T07:48:21.198Z,57.60
2022-12-13T07:49:21.190Z,57.70
2022-12-13T07:50:23.902Z,57.60
2022-12-13T07:51:21.157Z,57.50
2022-12-13T07:52:21.142Z,57.50
2022-12-13T07:53:21.605Z,57.60
2022-12-13T07:54:21.119Z,57.60
2022-12-13T07:55:23.417Z,57.50
2022-12-13T07:56:22.131Z,57.60
2022-12-13T07:57:21.080Z,57.50
2022-12-13T07:58:21.067Z,57.50
2022-12-13T07:59:28.520Z,57.50
2022-12-13T08:00:21.045Z,57.39
2022-12-13T08:01:21.156Z,57.39
2022-12-13T08:02:21.016Z,57.50
2022-12-13T08:03:25.343Z,57.50
2022-12-13T08:04:21.044Z,57.50
2022-12-13T08:05:25.925Z,57.39
2022-12-13T08:06:20.981Z,57.50
2022-12-13T08:07:20.952Z,57.39
2022-12-13T08:08:21.003Z,57.39
2022-12-13T08:09:20.926Z,57.39
2022-12-13T08:10:20.912Z,57.29
2022-12-13T08:11:20.899Z,57.18
2022-12-13T08:12:22.595Z,57.08
2022-12-13T08:13:21.332Z,56.98
2022-12-13T08:14:20.858Z,56.87
2022-12-13T08:15:20.846Z,56.77
2022-12-13T08:16:25.948Z,56.87
2022-12-13T08:17:21.887Z,56.77
2022-12-13T08:18:20.814Z,56.67
2022-12-13T08:19:20.795Z,56.56
2022-12-13T08:20:22.141Z,56.56
2022-12-13T08:22:24.207Z,56.36
2022-12-13T08:23:21.035Z,56.26
2022-12-13T08:24:20.725Z,56.15
2022-12-13T08:25:20.716Z,56.15
2022-12-13T08:26:20.704Z,56.15
2022-12-13T08:27:20.689Z,56.15
2022-12-13T08:28:20.681Z,56.15
2022-12-13T08:29:23.207Z,56.15
2022-12-13T08:30:23.134Z,56.05
2022-12-13T08:31:20.672Z,55.95
2022-12-13T08:32:20.625Z,55.95
2022-12-13T08:33:20.937Z,55.84
2022-12-13T08:34:20.596Z,55.74
2022-12-13T08:35:20.586Z,55.53
2022-12-13T08:36:20.572Z,55.43
2022-12-13T08:37:20.560Z,55.32
2022-12-13T08:38:22.750Z,55.23
2022-12-13T08:39:20.544Z,54.71
2022-12-13T08:40:20.519Z,54.81
2022-12-13T08:41:20.509Z,54.81
2022-12-13T08:42:20.651Z,54.71
2022-12-13T08:43:24.726Z,54.60
2022-12-13T08:44:20.469Z,54.40
2022-12-13T08:45:20.456Z,54.29
2022-12-13T08:46:20.482Z,54.08
2022-12-13T08:47:22.538Z,53.99
2022-12-13T08:48:20.764Z,54.08
2022-12-13T08:49:20.481Z,53.99
2022-12-13T08:50:20.391Z,53.99
2022-12-13T08:51:24.437Z,53.99
2022-12-13T08:52:21.405Z,53.88
2022-12-13T08:53:28.876Z,54.08
2022-12-13T08:54:31.101Z,53.99
2022-12-13T08:55:32.002Z,53.99
2022-12-13T08:56:22.311Z,54.08
2022-12-13T08:57:20.300Z,54.08
2022-12-13T08:58:20.287Z,54.08
2022-12-13T08:59:20.278Z,54.08
2022-12-13T09:00:20.261Z,53.99
2022-12-13T09:01:20.315Z,54.08
2022-12-13T09:02:20.287Z,54.08
2022-12-13T09:03:20.721Z,54.08
2022-12-13T09:04:20.234Z,54.08
2022-12-13T09:05:32.311Z,54.08
2022-12-13T09:06:21.224Z,54.19
2022-12-13T09:07:20.172Z,54.29
2022-12-13T09:08:24.066Z,54.29
2022-12-13T09:09:20.149Z,54.19
2022-12-13T09:10:27.034Z,54.08
2022-12-13T09:11:34.490Z,54.08
2022-12-13T09:12:29.834Z,54.19
2022-12-13T09:13:31.791Z,54.19
2022-12-13T09:14:23.575Z,54.19
2022-12-13T09:15:22.225Z,54.29
2022-12-13T09:16:23.894Z,54.29
2022-12-13T09:17:24.176Z,54.29
2022-12-13T09:18:24.370Z,54.29
2022-12-13T09:19:25.242Z,54.29
2022-12-13T09:20:28.557Z,54.29
2022-12-13T09:21:22.097Z,54.29
2022-12-13T09:22:33.177Z,54.29
2022-12-13T09:23:23.534Z,54.40
2022-12-13T09:24:24.631Z,54.40
2022-12-13T09:25:24.306Z,54.40
2022-12-13T09:26:25.252Z,54.40
2022-12-13T09:27:27.532Z,54.40
2022-12-13T09:28:20.939Z,54.40
2022-12-13T09:29:19.885Z,54.50
2022-12-13T09:30:19.872Z,54.50
2022-12-13T09:31:19.923Z,54.50
2022-12-13T09:32:19.847Z,54.50
2022-12-13T09:33:30.583Z,54.60
2022-12-13T09:34:20.907Z,54.60
2022-12-13T09:35:19.812Z,54.60
2022-12-13T09:36:19.823Z,54.60
2022-12-13T09:37:23.364Z,54.50
2022-12-13T09:38:19.770Z,54.50
2022-12-13T09:39:19.760Z,54.60
2022-12-13T09:40:26.293Z,54.60
2022-12-13T09:41:20.772Z,54.60
2022-12-13T09:42:20.927Z,54.60
2022-12-13T09:43:23.043Z,54.71
2022-12-13T09:44:31.232Z,54.71
2022-12-13T09:45:22.463Z,54.71
2022-12-13T09:46:22.611Z,54.81
2022-12-13T09:47:22.753Z,54.81
2022-12-13T09:48:22.973Z,54.81
2022-12-13T09:49:22.803Z,54.81
2022-12-13T09:50:19.700Z,54.81
2022-12-13T09:51:27.222Z,54.81
2022-12-13T09:52:21.630Z,54.81
2022-12-13T09:53:33.959Z,54.81
2022-12-13T09:54:20.603Z,54.81
2022-12-13T09:55:19.556Z,54.81
2022-12-13T09:56:19.544Z,54.81
2022-12-13T09:57:32.705Z,54.81
2022-12-13T09:58:20.999Z,54.91
2022-12-13T09:59:19.502Z,55.02
2022-12-13T10:00:19.568Z,54.91
2022-12-13T10:01:23.051Z,55.02
2022-12-13T10:02:19.499Z,55.02
2022-12-13T10:03:19.683Z,55.02
2022-12-13T10:04:19.437Z,55.02
2022-12-13T10:05:22.665Z,55.12
2022-12-13T10:06:23.382Z,55.02
2022-12-13T10:07:19.399Z,55.02
2022-12-13T10:08:19.409Z,55.02
2022-12-13T10:09:19.374Z,55.02
2022-12-13T10:10:19.485Z,55.02
2022-12-13T10:11:19.348Z,55.02
2022-12-13T10:12:19.331Z,55.02
2022-12-13T10:13:19.582Z,55.12
2022-12-13T10:14:19.302Z,55.12
2022-12-13T10:15:22.209Z,55.12
2022-12-13T10:16:23.325Z,55.12
2022-12-13T10:17:19.272Z,55.12
2022-12-13T10:18:19.260Z,55.23
2022-12-13T10:19:28.084Z,55.12
2022-12-13T10:20:20.271Z,55.12
2022-12-13T10:21:19.220Z,55.12
2022-12-13T10:22:19.207Z,55.23
2022-12-13T10:23:59.368Z,55.23
2022-12-13T10:24:28.743Z,55.23
2022-12-13T10:25:20.207Z,55.23
2022-12-13T10:26:23.822Z,55.23
2022-12-13T10:27:19.145Z,55.23
2022-12-13T10:28:19.128Z,55.32
2022-12-13T10:29:19.118Z,55.23
2022-12-13T10:30:24.557Z,55.23
2022-12-13T10:31:20.185Z,55.23
2022-12-13T10:32:19.079Z,55.23
2022-12-13T10:33:19.067Z,55.23
2022-12-13T10:34:19.051Z,55.32
2022-12-13T10:35:19.039Z,55.32
2022-12-13T10:36:24.969Z,55.32
2022-12-13T10:37:20.055Z,55.23
2022-12-13T10:38:18.999Z,55.23
2022-12-13T10:39:18.988Z,55.23
2022-12-13T10:40:31.936Z,55.23
2022-12-13T10:41:20.002Z,55.23
2022-12-13T10:42:23.552Z,55.23
2022-12-13T10:43:18.938Z,55.23
2022-12-13T10:44:18.924Z,55.32
2022-12-13T10:45:23.433Z,55.32
2022-12-13T10:46:18.977Z,55.32
2022-12-13T10:47:18.889Z,55.32
2022-12-13T10:48:18.870Z,55.32
2022-12-13T10:49:18.857Z,55.43
2022-12-13T10:50:18.844Z,55.32
2022-12-13T10:51:18.833Z,55.32
2022-12-13T10:52:18.819Z,55.43
2022-12-13T10:53:19.844Z,55.43
2022-12-13T10:54:18.791Z,55.53
2022-12-13T10:55:23.808Z,55.43
2022-12-13T10:56:23.108Z,55.53
2022-12-13T10:57:18.762Z,55.43
2022-12-13T10:58:18.740Z,55.53
2022-12-13T10:59:18.728Z,55.53
2022-12-13T11:00:18.712Z,55.53
2022-12-13T11:01:18.811Z,55.53
2022-12-13T11:02:18.747Z,55.43
2022-12-13T11:03:18.672Z,55.43
2022-12-13T11:04:23.837Z,55.43
2022-12-13T11:05:23.261Z,55.43
2022-12-13T11:06:18.637Z,55.43
2022-12-13T11:07:18.621Z,55.43
2022-12-13T11:08:18.607Z,55.53
2022-12-13T11:09:23.526Z,55.43
2022-12-13T11:10:23.644Z,55.43
2022-12-13T11:11:19.609Z,55.40
2022-12-13T11:12:18.586Z,55.43
2022-12-13T11:13:18.543Z,55.53
2022-12-13T11:14:18.542Z,55.53
2022-12-13T11:15:23.002Z,55.53
2022-12-13T11:16:18.525Z,55.53
2022-12-13T11:17:18.494Z,55.53
2022-12-13T11:18:18.480Z,55.53
2022-12-13T11:19:18.500Z,55.53
2022-12-13T11:20:18.451Z,55.53
2022-12-13T11:21:18.438Z,55.53
2022-12-13T11:22:18.428Z,55.63
2022-12-13T11:23:18.412Z,55.53
2022-12-13T11:24:22.925Z,55.63
2022-12-13T11:25:18.396Z,55.63
2022-12-13T11:26:24.290Z,55.63
2022-12-13T11:27:19.402Z,55.63
2022-12-13T11:28:26.688Z,55.63
2022-12-13T11:29:19.372Z,55.63
2022-12-13T11:30:18.321Z,55.63
2022-12-13T11:31:18.370Z,55.63
2022-12-13T11:32:23.104Z,55.63
2022-12-13T11:33:18.281Z,55.61
2022-12-13T11:34:18.270Z,55.63
2022-12-13T11:35:18.255Z,55.63
2022-12-13T11:36:18.244Z,55.63
2022-12-13T11:37:18.229Z,55.74
2022-12-13T11:38:18.217Z,55.63
2022-12-13T11:39:18.201Z,55.63
2022-12-13T11:40:18.189Z,55.63
2022-12-13T11:41:32.087Z,55.63
2022-12-13T11:42:19.202Z,55.74
2022-12-13T11:43:18.148Z,55.74
2022-12-13T11:44:18.161Z,55.74
2022-12-13T11:45:22.387Z,55.74
2022-12-13T11:46:18.171Z,55.74
2022-12-13T11:47:18.096Z,55.74
2022-12-13T11:48:18.086Z,55.74
2022-12-13T11:49:18.172Z,55.84
2022-12-13T11:50:33.243Z,55.74
2022-12-13T11:51:19.080Z,55.74
2022-12-13T11:52:18.081Z,55.74
2022-12-13T11:53:18.017Z,55.74
2022-12-13T11:54:23.620Z,55.84
2022-12-13T11:55:19.036Z,55.84
2022-12-13T11:56:17.985Z,55.84
2022-12-13T11:57:17.967Z,55.84
2022-12-13T11:58:32.484Z,55.84
2022-12-13T11:59:24.291Z,55.95
2022-12-13T12:00:34.368Z,55.95
2022-12-13T12:01:18.954Z,55.95
2022-12-13T12:02:18.056Z,55.95
2022-12-13T12:03:18.006Z,55.95
2022-12-13T12:04:17.878Z,55.95
2022-12-13T12:05:17.862Z,55.84
2022-12-13T12:06:17.852Z,55.84
2022-12-13T12:07:32.398Z,55.84
2022-12-13T12:08:35.322Z,55.84
2022-12-13T12:09:18.852Z,55.84
2022-12-13T12:10:17.799Z,55.84
2022-12-13T12:11:17.784Z,55.84
2022-12-13T12:12:21.993Z,55.84
2022-12-13T12:13:17.758Z,55.74
2022-12-13T12:14:17.746Z,55.74
2022-12-13T12:15:17.732Z,55.63
2022-12-13T12:16:18.829Z,55.74
2022-12-13T12:17:17.710Z,55.74
2022-12-13T12:18:17.697Z,55.74
2022-12-13T12:19:17.683Z,55.84
2022-12-13T12:20:23.489Z,55.95
2022-12-13T12:21:18.688Z,55.95
2022-12-13T12:22:17.691Z,55.84
2022-12-13T12:23:17.646Z,55.84
2022-12-13T12:24:17.614Z,55.84
2022-12-13T12:25:17.602Z,55.84
2022-12-13T12:26:17.591Z,55.84
2022-12-13T12:27:22.695Z,55.74
2022-12-13T12:28:17.564Z,55.74
2022-12-13T12:29:17.553Z,55.84
2022-12-13T12:30:22.894Z,55.84
2022-12-13T12:31:18.600Z,55.82
2022-12-13T12:32:17.588Z,55.84
2022-12-13T12:33:17.498Z,55.84
2022-12-13T12:34:17.488Z,55.84
2022-12-13T12:35:18.511Z,55.74
2022-12-13T12:36:17.462Z,55.74
2022-12-13T12:37:17.444Z,55.74
2022-12-13T12:38:17.434Z,55.74
2022-12-13T12:39:17.420Z,55.74
2022-12-13T12:40:17.409Z,55.74
2022-12-13T12:41:17.878Z,55.74
2022-12-13T12:42:17.389Z,55.74
2022-12-13T12:43:17.370Z,55.71
2022-12-13T12:44:17.357Z,55.61
2022-12-13T12:45:26.998Z,55.61
2022-12-13T12:46:17.414Z,55.61
2022-12-13T12:49:18.372Z,55.63
2022-12-13T12:50:17.280Z,55.63
2022-12-13T12:51:17.265Z,55.63
2022-12-13T12:52:17.254Z,55.74
2022-12-13T12:53:17.240Z,55.74
2022-12-13T12:54:17.227Z,55.74
2022-12-13T12:55:17.215Z,55.61